9OI9 weather

Riverside Methodist Hospital Heliport
Columbus, Ohio, United States

Public forecast

Using degrees Fahrenheit for public forecast. Weather courtesy of forecast.io.

METAR (pilot weather report)

Closest report is The Ohio State University Airport - Don Scott Field, 3.4 nm (6.3 km) NNW. Retrieved 2019/05/19 23:53 UTC (1 hour ago):

KOSU 192353Z 19009KT 10SM FEW065 SCT110 20/17 A2981 RMK AO2 SLP089 60010 T02000172 10272 20178 50003

TAF (pilot weather forecast)

Forecast is more than 12 hours old.

Closest forecast is John Glenn Columbus International Airport, 6.9 nm (12.7 km) ESE. Retrieved 2019/05/19 00:33 UTC (1 day ago):

TAF KCMH 192330Z 2000/2024 24010KT P6SM -SHRA OVC050 FM200200 22010KT P6SM BKN040 FM200300 25010KT P6SM SCT040 BKN080 FM201000 25009KT P6SM SCT020 FM201600 27012G22KT P6SM BKN035